createdAt,value
2022-10-04T00:01:46.810Z,21.31
2022-10-04T00:04:17.304Z,21.31
2022-10-04T00:06:49.887Z,21.30
2022-10-04T00:09:20.013Z,21.31
2022-10-04T00:11:47.951Z,21.31
2022-10-04T00:14:19.751Z,21.32
2022-10-04T00:16:46.615Z,21.32
2022-10-04T00:19:16.281Z,21.30
2022-10-04T00:22:10.591Z,21.31
2022-10-04T00:24:37.754Z,21.32
2022-10-04T00:27:24.356Z,21.30
2022-10-04T00:30:11.170Z,21.30
2022-10-04T00:32:37.738Z,21.30
2022-10-04T00:35:24.322Z,21.30
2022-10-04T00:37:57.673Z,21.32
2022-10-04T00:40:26.465Z,21.33
2022-10-04T00:42:58.080Z,21.30
2022-10-04T00:45:28.114Z,21.31
2022-10-04T00:47:59.586Z,21.31
2022-10-04T00:50:30.192Z,21.29
2022-10-04T00:52:58.146Z,21.29
2022-10-04T00:55:34.783Z,21.30
2022-10-04T00:58:03.297Z,21.31
2022-10-04T01:00:33.680Z,21.29
2022-10-04T01:03:15.511Z,21.29
2022-10-04T01:05:48.443Z,21.28
2022-10-04T01:08:17.952Z,21.30
2022-10-04T01:10:49.008Z,21.30
2022-10-04T01:13:34.220Z,21.30
2022-10-04T01:16:12.078Z,21.30
2022-10-04T01:18:38.790Z,21.29
2022-10-04T01:21:20.657Z,21.29
2022-10-04T01:23:51.355Z,21.30
2022-10-04T01:26:26.812Z,21.28
2022-10-04T01:29:00.195Z,21.30
2022-10-04T01:31:27.910Z,21.29
2022-10-04T01:33:55.089Z,21.30
2022-10-04T01:36:22.195Z,21.30
2022-10-04T01:38:49.271Z,21.30
2022-10-04T01:41:18.816Z,21.30
2022-10-04T01:43:48.940Z,21.30
2022-10-04T01:46:20.781Z,21.30
2022-10-04T01:48:47.539Z,21.30
2022-10-04T01:51:22.393Z,21.30
2022-10-04T01:53:56.928Z,21.29
2022-10-04T01:56:26.077Z,21.29
2022-10-04T01:59:04.921Z,21.28
2022-10-04T02:01:31.936Z,21.28
2022-10-04T02:04:02.128Z,21.30
2022-10-04T02:06:30.274Z,21.30
2022-10-04T02:09:00.367Z,21.28
2022-10-04T02:11:30.360Z,21.29
2022-10-04T02:13:58.008Z,21.29
2022-10-04T02:16:26.616Z,21.27
2022-10-04T02:19:03.662Z,21.28
2022-10-04T02:21:30.680Z,21.28
2022-10-04T02:23:57.459Z,21.27
2022-10-04T02:26:24.143Z,21.27
2022-10-04T02:28:51.311Z,21.27
2022-10-04T02:31:39.126Z,21.27
2022-10-04T02:34:06.025Z,21.26
2022-10-04T02:36:33.478Z,21.27
2022-10-04T02:39:15.721Z,21.27
2022-10-04T02:41:52.213Z,21.26
2022-10-04T02:44:26.518Z,21.27
2022-10-04T02:47:11.967Z,21.26
2022-10-04T02:49:43.250Z,21.26
2022-10-04T02:52:16.502Z,21.26
2022-10-04T02:54:43.101Z,21.27
2022-10-04T02:57:15.454Z,21.26
2022-10-04T02:59:42.067Z,21.26
2022-10-04T03:02:29.918Z,21.27
2022-10-04T03:05:00.315Z,21.26
2022-10-04T03:07:27.393Z,21.25
2022-10-04T03:09:54.200Z,21.26
2022-10-04T03:12:22.401Z,21.26
2022-10-04T03:14:49.211Z,21.26
2022-10-04T03:17:17.248Z,21.26
2022-10-04T03:19:44.161Z,21.25
2022-10-04T03:22:11.717Z,21.24
2022-10-04T03:24:50.057Z,21.24
2022-10-04T03:27:25.767Z,21.23
2022-10-04T03:29:58.254Z,21.24
2022-10-04T03:32:26.305Z,21.24
2022-10-04T03:34:55.838Z,21.24
2022-10-04T03:37:22.724Z,21.24
2022-10-04T03:40:05.344Z,21.26
2022-10-04T03:42:55.854Z,21.23
2022-10-04T03:45:27.136Z,21.23
2022-10-04T03:47:54.827Z,21.23
2022-10-04T03:50:34.494Z,21.22
2022-10-04T03:53:04.562Z,21.23
2022-10-04T03:55:35.252Z,21.22
2022-10-04T03:58:02.538Z,21.22
2022-10-04T04:00:29.819Z,21.22
2022-10-04T04:02:59.135Z,21.22
2022-10-04T04:05:31.829Z,21.22
2022-10-04T04:08:01.146Z,21.21
2022-10-04T04:10:29.759Z,21.22
2022-10-04T04:13:11.517Z,21.21
2022-10-04T04:15:38.559Z,21.22
2022-10-04T04:18:13.938Z,21.20
2022-10-04T04:20:41.498Z,21.21
2022-10-04T04:23:17.831Z,21.21
2022-10-04T04:25:47.291Z,21.21
2022-10-04T04:28:34.602Z,21.20
2022-10-04T04:31:10.183Z,21.20
2022-10-04T04:33:43.157Z,21.20
2022-10-04T04:36:12.682Z,21.19
2022-10-04T04:39:03.293Z,21.19
2022-10-04T04:41:35.106Z,21.20
2022-10-04T04:44:02.651Z,21.19
2022-10-04T04:46:30.539Z,21.19
2022-10-04T04:49:06.900Z,21.18
2022-10-04T04:51:33.739Z,21.20
2022-10-04T04:54:02.913Z,21.17
2022-10-04T04:56:30.566Z,21.17
2022-10-04T04:59:08.952Z,21.17
2022-10-04T05:01:46.094Z,21.16
2022-10-04T05:04:12.908Z,21.16
2022-10-04T05:06:43.629Z,21.15
2022-10-04T05:09:22.115Z,21.15
2022-10-04T05:11:50.247Z,21.14
2022-10-04T05:14:17.978Z,21.13
2022-10-04T05:16:44.698Z,21.15
2022-10-04T05:19:16.467Z,21.13
2022-10-04T05:21:45.285Z,21.12
2022-10-04T05:24:14.325Z,21.12
2022-10-04T05:26:41.752Z,21.12
2022-10-04T05:29:15.395Z,21.12
2022-10-04T05:31:48.223Z,21.11
2022-10-04T05:34:37.631Z,21.11
2022-10-04T05:37:10.306Z,21.11
2022-10-04T05:39:42.768Z,21.11
2022-10-04T05:42:17.521Z,21.09
2022-10-04T05:44:52.086Z,21.09
2022-10-04T05:47:24.185Z,21.09
2022-10-04T05:49:53.085Z,21.08
2022-10-04T05:52:28.239Z,21.08
2022-10-04T05:55:19.415Z,21.08
2022-10-04T05:57:45.984Z,21.08
2022-10-04T06:00:17.519Z,21.07
2022-10-04T06:02:51.434Z,21.08
2022-10-04T06:05:38.423Z,21.07
2022-10-04T06:08:23.539Z,21.07
2022-10-04T06:10:57.640Z,21.06
2022-10-04T06:13:45.471Z,21.06
2022-10-04T06:16:24.011Z,21.05
2022-10-04T06:19:08.472Z,21.05
2022-10-04T06:21:41.314Z,21.05
2022-10-04T06:24:26.800Z,21.06
2022-10-04T06:26:59.538Z,21.05
2022-10-04T06:29:28.683Z,21.05
2022-10-04T06:31:57.165Z,21.04
2022-10-04T06:34:33.139Z,21.03
2022-10-04T06:37:09.896Z,21.04
2022-10-04T06:39:49.474Z,21.03
2022-10-04T06:42:27.970Z,20.97
2022-10-04T06:45:06.361Z,20.91
2022-10-04T06:48:01.244Z,20.95
2022-10-04T06:50:28.446Z,21.02
2022-10-04T06:53:04.367Z,21.08
2022-10-04T06:55:31.262Z,21.11
2022-10-04T06:58:18.133Z,21.15
2022-10-04T07:00:50.927Z,21.20
2022-10-04T07:03:23.530Z,21.26
2022-10-04T07:06:01.277Z,21.29
2022-10-04T07:08:37.085Z,21.34
2022-10-04T07:11:24.965Z,21.38
2022-10-04T07:13:56.701Z,21.41
2022-10-04T07:16:26.459Z,21.45
2022-10-04T07:19:13.824Z,21.49
2022-10-04T07:21:45.427Z,21.58
2022-10-04T07:24:19.803Z,21.59
2022-10-04T07:26:48.335Z,21.68
2022-10-04T07:29:22.345Z,21.70
2022-10-04T07:32:12.243Z,21.69
2022-10-04T07:34:54.136Z,21.71
2022-10-04T07:37:21.772Z,21.73
2022-10-04T07:40:04.076Z,21.74
2022-10-04T07:42:47.545Z,21.76
2022-10-04T07:45:25.814Z,21.77
2022-10-04T07:48:14.694Z,21.78
2022-10-04T07:51:01.955Z,21.79
2022-10-04T07:53:32.999Z,21.79
2022-10-04T07:56:22.627Z,21.80
2022-10-04T07:58:58.095Z,21.85
2022-10-04T08:01:32.383Z,21.87
2022-10-04T08:04:28.595Z,21.88
2022-10-04T08:07:00.044Z,21.89
2022-10-04T08:09:27.195Z,21.93
2022-10-04T08:12:12.556Z,21.95
2022-10-04T08:14:50.711Z,21.93
2022-10-04T08:17:26.643Z,21.94
2022-10-04T08:19:56.383Z,21.93
2022-10-04T08:22:35.201Z,21.96
2022-10-04T08:25:05.625Z,21.95
2022-10-04T08:27:39.766Z,21.95
2022-10-04T08:30:06.766Z,21.96
2022-10-04T08:33:02.163Z,21.96
2022-10-04T08:35:39.670Z,21.96
2022-10-04T08:38:28.362Z,21.95
2022-10-04T08:41:13.887Z,21.96
2022-10-04T08:44:02.988Z,21.95
2022-10-04T08:46:35.547Z,21.96
2022-10-04T08:49:21.582Z,21.93
2022-10-04T08:52:17.550Z,21.93
2022-10-04T08:54:59.268Z,21.92
2022-10-04T08:57:31.709Z,21.91
2022-10-04T09:00:07.920Z,21.92
2022-10-04T09:02:53.289Z,21.91
2022-10-04T09:05:22.635Z,21.90
2022-10-04T09:08:07.518Z,21.89
2022-10-04T09:10:44.670Z,21.90
2022-10-04T09:13:31.128Z,21.89
2022-10-04T09:16:06.285Z,21.87
2022-10-04T09:18:38.792Z,21.87
2022-10-04T09:21:15.074Z,21.85
2022-10-04T09:23:53.980Z,21.84
2022-10-04T09:26:21.096Z,21.84
2022-10-04T09:28:56.091Z,21.83
2022-10-04T09:31:41.635Z,21.83
2022-10-04T09:34:14.086Z,21.83
2022-10-04T09:37:02.108Z,21.83
2022-10-04T09:39:31.600Z,21.81
2022-10-04T09:42:07.188Z,21.80
2022-10-04T09:44:49.159Z,21.79
2022-10-04T09:47:21.696Z,21.77
2022-10-04T09:49:51.372Z,21.76
2022-10-04T09:52:20.714Z,21.75
2022-10-04T09:55:05.304Z,21.74
2022-10-04T09:57:58.546Z,21.73
2022-10-04T10:00:40.164Z,21.71
2022-10-04T10:03:21.892Z,21.69
2022-10-04T10:05:48.553Z,21.68
2022-10-04T10:08:28.392Z,21.67
2022-10-04T10:11:23.072Z,21.66
2022-10-04T10:14:08.265Z,21.65
2022-10-04T10:16:53.619Z,21.65
2022-10-04T10:19:32.109Z,21.64
2022-10-04T10:22:17.674Z,21.62
2022-10-04T10:25:06.726Z,21.62
2022-10-04T10:27:53.023Z,21.62
2022-10-04T10:30:22.526Z,21.60
2022-10-04T10:32:55.342Z,21.61
2022-10-04T10:35:40.460Z,21.61
2022-10-04T10:38:24.031Z,21.60
2022-10-04T10:40:50.621Z,21.60
2022-10-04T10:43:25.803Z,21.60
2022-10-04T10:45:55.450Z,21.58
2022-10-04T10:48:22.297Z,21.56
2022-10-04T10:51:01.473Z,21.55
2022-10-04T10:53:37.007Z,21.55
2022-10-04T10:56:25.639Z,21.54
2022-10-04T10:59:17.472Z,21.53
2022-10-04T11:02:05.083Z,21.50
2022-10-04T11:04:43.096Z,21.50
2022-10-04T11:07:26.553Z,21.48
2022-10-04T11:10:06.095Z,21.48
2022-10-04T11:12:56.199Z,21.47
2022-10-04T11:15:40.751Z,21.45
2022-10-04T11:18:25.941Z,21.44
2022-10-04T11:21:08.088Z,21.43
2022-10-04T11:23:52.180Z,21.42
2022-10-04T11:26:28.139Z,21.43
2022-10-04T11:29:15.733Z,21.43
2022-10-04T11:32:02.647Z,21.42
2022-10-04T11:34:41.742Z,21.41
2022-10-04T11:37:12.373Z,21.41
2022-10-04T11:39:44.542Z,21.42
2022-10-04T11:42:29.201Z,21.41
2022-10-04T11:45:08.017Z,21.41
2022-10-04T11:47:37.515Z,21.45
2022-10-04T11:50:04.078Z,21.44
2022-10-04T11:52:30.772Z,21.44
2022-10-04T11:55:00.180Z,21.45
2022-10-04T11:57:45.617Z,21.44
2022-10-04T12:00:40.815Z,21.43
2022-10-04T12:03:28.305Z,21.42
2022-10-04T12:06:14.848Z,21.41
2022-10-04T12:08:44.384Z,21.40
2022-10-04T12:11:52.778Z,21.39
2022-10-04T12:14:35.941Z,21.36
2022-10-04T12:17:20.855Z,21.35
2022-10-04T12:20:11.250Z,21.35
2022-10-04T12:23:00.505Z,21.35
2022-10-04T12:25:33.206Z,21.35
2022-10-04T12:28:18.748Z,21.33
2022-10-04T12:31:08.316Z,21.33
2022-10-04T12:33:39.446Z,21.31
2022-10-04T12:36:14.963Z,21.30
2022-10-04T12:38:41.542Z,21.31
2022-10-04T12:41:12.292Z,21.29
2022-10-04T12:43:57.430Z,21.29
2022-10-04T12:46:29.987Z,21.28
2022-10-04T12:49:16.199Z,21.27
2022-10-04T12:51:51.655Z,21.26
2022-10-04T12:54:21.100Z,21.26
2022-10-04T12:56:48.112Z,21.26
2022-10-04T12:59:33.614Z,21.24
2022-10-04T13:02:06.491Z,21.24
2022-10-04T13:04:36.427Z,21.23
2022-10-04T13:07:02.983Z,21.23
2022-10-04T13:09:36.343Z,21.22
2022-10-04T13:12:35.372Z,21.22
2022-10-04T13:15:20.569Z,21.20
2022-10-04T13:17:50.342Z,21.20
2022-10-04T13:20:35.485Z,21.21
2022-10-04T13:23:21.862Z,21.20
2022-10-04T13:26:07.427Z,21.18
2022-10-04T13:28:40.350Z,21.18
2022-10-04T13:31:11.819Z,21.17
2022-10-04T13:33:58.308Z,21.17
2022-10-04T13:36:27.737Z,21.17
2022-10-04T13:39:11.272Z,21.17
2022-10-04T13:41:56.609Z,21.16
2022-10-04T13:44:41.749Z,21.14
2022-10-04T13:47:28.032Z,21.14
2022-10-04T13:50:03.846Z,21.14
2022-10-04T13:52:58.125Z,21.15
2022-10-04T13:55:53.162Z,21.15
2022-10-04T13:58:26.234Z,21.14
2022-10-04T14:01:11.768Z,21.13
2022-10-04T14:03:38.475Z,21.11
2022-10-04T14:06:30.958Z,21.13
2022-10-04T14:09:08.128Z,21.12
2022-10-04T14:12:04.501Z,21.12
2022-10-04T14:14:34.002Z,21.10
2022-10-04T14:17:23.038Z,21.11
2022-10-04T14:20:08.056Z,21.10
2022-10-04T14:22:41.496Z,21.09
2022-10-04T14:25:31.146Z,21.08
2022-10-04T14:28:17.178Z,21.08
2022-10-04T14:31:02.677Z,21.07
2022-10-04T14:33:48.378Z,21.06
2022-10-04T14:36:20.838Z,21.06
2022-10-04T14:39:11.927Z,21.06
2022-10-04T14:41:56.648Z,21.04
2022-10-04T14:44:45.039Z,21.03
2022-10-04T14:47:30.639Z,21.04
2022-10-04T14:50:15.779Z,21.03
2022-10-04T14:52:48.298Z,21.04
2022-10-04T14:55:26.155Z,21.04
2022-10-04T14:57:56.014Z,21.04
2022-10-04T15:00:24.508Z,21.04
2022-10-04T15:03:20.669Z,21.03
2022-10-04T15:05:53.366Z,21.02
2022-10-04T15:08:23.018Z,21.04
2022-10-04T15:11:05.166Z,21.02
2022-10-04T15:13:31.794Z,21.01
2022-10-04T15:16:12.889Z,21.00
2022-10-04T15:18:39.866Z,21.01
2022-10-04T15:21:32.454Z,21.00
2022-10-04T15:24:17.823Z,20.98
2022-10-04T15:27:07.380Z,20.97
2022-10-04T15:29:59.372Z,20.98
2022-10-04T15:32:35.390Z,20.98
2022-10-04T15:35:03.698Z,20.96
2022-10-04T15:37:45.834Z,20.97
2022-10-04T15:40:31.112Z,20.95
2022-10-04T15:43:16.263Z,20.96
2022-10-04T15:46:08.158Z,20.95
2022-10-04T15:48:47.204Z,20.93
2022-10-04T15:51:23.581Z,20.94
2022-10-04T15:53:53.015Z,20.94
2022-10-04T15:56:30.136Z,20.94
2022-10-04T15:59:11.482Z,20.94
2022-10-04T16:01:45.983Z,20.92
2022-10-04T16:04:32.787Z,20.91
2022-10-04T16:07:20.000Z,20.92
2022-10-04T16:09:52.792Z,20.90
2022-10-04T16:12:25.624Z,20.90
2022-10-04T16:14:59.690Z,20.90
2022-10-04T16:17:53.355Z,20.89
2022-10-04T16:20:23.245Z,20.89
2022-10-04T16:23:08.628Z,20.89
2022-10-04T16:25:38.199Z,20.87
2022-10-04T16:28:27.682Z,20.87
2022-10-04T16:31:00.351Z,20.88
2022-10-04T16:33:35.667Z,20.86
2022-10-04T16:36:02.228Z,20.86
2022-10-04T16:38:33.812Z,20.84
2022-10-04T16:41:08.312Z,20.85
2022-10-04T16:43:38.295Z,20.84
2022-10-04T16:46:20.314Z,20.84
2022-10-04T16:48:50.021Z,20.84
2022-10-04T16:51:16.666Z,20.84
2022-10-04T16:53:49.249Z,20.83
2022-10-04T16:56:18.495Z,20.83
2022-10-04T16:59:08.344Z,20.81
2022-10-04T17:01:41.137Z,20.81
2022-10-04T17:04:31.533Z,20.81
2022-10-04T17:06:58.138Z,20.80
2022-10-04T17:09:25.042Z,20.79
2022-10-04T17:11:54.417Z,20.82
2022-10-04T17:14:48.475Z,20.86
2022-10-04T17:17:21.842Z,20.87
2022-10-04T17:19:52.695Z,20.88
2022-10-04T17:22:20.569Z,20.92
2022-10-04T17:24:52.835Z,20.97
2022-10-04T17:27:22.743Z,21.02
2022-10-04T17:29:49.422Z,21.07
2022-10-04T17:32:25.561Z,21.15
2022-10-04T17:34:54.934Z,21.17
2022-10-04T17:37:40.219Z,21.20
2022-10-04T17:40:12.823Z,21.23
2022-10-04T17:42:57.117Z,21.26
2022-10-04T17:45:29.786Z,21.29
2022-10-04T17:48:21.440Z,21.32
2022-10-04T17:51:06.779Z,21.34
2022-10-04T17:53:54.269Z,21.37
2022-10-04T17:56:31.459Z,21.40
2022-10-04T17:59:08.190Z,21.44
2022-10-04T18:01:49.738Z,21.45
2022-10-04T18:04:19.335Z,21.46
2022-10-04T18:06:52.742Z,21.47
2022-10-04T18:09:19.734Z,21.49
2022-10-04T18:11:49.980Z,21.49
2022-10-04T18:14:35.354Z,21.53
2022-10-04T18:17:05.779Z,21.55
2022-10-04T18:19:38.546Z,21.56
2022-10-04T18:22:14.477Z,21.59
2022-10-04T18:24:42.526Z,21.61
2022-10-04T18:27:21.260Z,21.63
2022-10-04T18:30:02.930Z,21.64
2022-10-04T18:32:29.552Z,21.65
2022-10-04T18:34:57.724Z,21.66
2022-10-04T18:37:30.599Z,21.67
2022-10-04T18:40:03.011Z,21.65
2022-10-04T18:42:30.850Z,21.65
2022-10-04T18:44:59.383Z,21.68
2022-10-04T18:47:39.307Z,21.69
2022-10-04T18:50:15.227Z,21.67
2022-10-04T18:52:44.779Z,21.69
2022-10-04T18:55:14.296Z,21.68
2022-10-04T18:58:01.899Z,21.67
2022-10-04T19:00:52.340Z,21.69
2022-10-04T19:03:40.322Z,21.70
2022-10-04T19:06:11.150Z,21.69
2022-10-04T19:08:47.317Z,21.68
2022-10-04T19:11:20.565Z,21.69
2022-10-04T19:13:49.953Z,21.69
2022-10-04T19:16:32.043Z,21.68
2022-10-04T19:19:11.576Z,21.67
2022-10-04T19:21:55.052Z,21.67
2022-10-04T19:24:41.245Z,21.66
2022-10-04T19:27:21.768Z,21.65
2022-10-04T19:30:00.314Z,21.66
2022-10-04T19:32:29.960Z,21.65
2022-10-04T19:35:06.569Z,21.65
2022-10-04T19:37:41.302Z,21.66
2022-10-04T19:40:07.969Z,21.66
2022-10-04T19:42:34.560Z,21.65
2022-10-04T19:45:21.597Z,21.64
2022-10-04T19:47:50.264Z,21.63
2022-10-04T19:50:22.338Z,21.63
2022-10-04T19:52:53.541Z,21.62
2022-10-04T19:55:21.965Z,21.63
2022-10-04T19:57:54.415Z,21.62
2022-10-04T20:00:22.323Z,21.61
2022-10-04T20:02:49.359Z,21.61
2022-10-04T20:05:17.522Z,21.60
2022-10-04T20:07:56.482Z,21.59
2022-10-04T20:10:28.777Z,21.59
2022-10-04T20:13:08.855Z,21.58
2022-10-04T20:15:35.602Z,21.59
2022-10-04T20:18:03.309Z,21.56
2022-10-04T20:20:39.254Z,21.55
2022-10-04T20:23:07.818Z,21.54
2022-10-04T20:25:43.490Z,21.54
2022-10-04T20:28:11.186Z,21.54
2022-10-04T20:31:05.750Z,21.53
2022-10-04T20:33:39.285Z,21.52
2022-10-04T20:36:06.362Z,21.51
2022-10-04T20:38:48.108Z,21.51
2022-10-04T20:41:53.248Z,21.51
2022-10-04T20:44:38.454Z,21.49
2022-10-04T20:47:05.154Z,21.49
2022-10-04T20:49:31.908Z,21.49
2022-10-04T20:51:58.538Z,21.48
2022-10-04T20:54:25.193Z,21.48
2022-10-04T20:56:55.706Z,21.47
2022-10-04T20:59:22.569Z,21.46
2022-10-04T21:02:05.296Z,21.46
2022-10-04T21:04:31.974Z,21.45
2022-10-04T21:06:58.577Z,21.45
2022-10-04T21:09:26.035Z,21.45
2022-10-04T21:11:53.499Z,21.43
2022-10-04T21:14:23.873Z,21.43
2022-10-04T21:16:52.573Z,21.43
2022-10-04T21:19:39.648Z,21.42
2022-10-04T21:22:07.619Z,21.41
2022-10-04T21:24:54.194Z,21.41
2022-10-04T21:27:41.625Z,21.41
2022-10-04T21:30:13.726Z,21.40
2022-10-04T21:32:40.978Z,21.38
2022-10-04T21:35:09.216Z,21.39
2022-10-04T21:37:36.883Z,21.37
2022-10-04T21:40:04.648Z,21.38
2022-10-04T21:42:31.885Z,21.37
2022-10-04T21:44:59.204Z,21.37
2022-10-04T21:47:26.356Z,21.37
2022-10-04T21:49:54.258Z,21.36
2022-10-04T21:52:21.383Z,21.38
2022-10-04T21:54:48.295Z,21.37
2022-10-04T21:57:15.119Z,21.38
2022-10-04T21:59:42.050Z,21.37
2022-10-04T22:02:09.258Z,21.36
2022-10-04T22:04:38.440Z,21.34
2022-10-04T22:07:05.366Z,21.34
2022-10-04T22:09:33.576Z,21.33
2022-10-04T22:12:00.807Z,21.33
2022-10-04T22:14:27.431Z,21.33
2022-10-04T22:16:54.945Z,21.30
2022-10-04T22:19:21.791Z,21.29
2022-10-04T22:21:48.391Z,21.29
2022-10-04T22:24:19.271Z,21.26
2022-10-04T22:26:46.289Z,21.26
2022-10-04T22:29:14.190Z,21.24
2022-10-04T22:31:44.163Z,21.23
2022-10-04T22:34:19.406Z,21.23
2022-10-04T22:36:46.860Z,21.22
2022-10-04T22:39:15.396Z,21.22
2022-10-04T22:41:48.186Z,21.22
2022-10-04T22:44:50.503Z,21.21
2022-10-04T22:47:17.251Z,21.21
2022-10-04T22:49:45.024Z,21.22
2022-10-04T22:52:17.068Z,21.21
2022-10-04T22:54:44.993Z,21.21
2022-10-04T22:57:14.430Z,21.20
2022-10-04T22:59:42.732Z,21.20
2022-10-04T23:02:12.731Z,21.19
2022-10-04T23:04:40.224Z,21.20
2022-10-04T23:07:06.855Z,21.20
2022-10-04T23:09:33.447Z,21.19
2022-10-04T23:12:00.084Z,21.20
2022-10-04T23:14:27.209Z,21.19
2022-10-04T23:16:53.896Z,21.19
2022-10-04T23:19:20.667Z,21.17
2022-10-04T23:21:48.977Z,21.17
2022-10-04T23:24:16.942Z,21.17
2022-10-04T23:26:47.679Z,21.18
2022-10-04T23:29:26.350Z,21.16
2022-10-04T23:31:53.182Z,21.16
2022-10-04T23:34:22.013Z,21.16
2022-10-04T23:36:49.548Z,21.16
2022-10-04T23:39:28.883Z,21.14
2022-10-04T23:41:56.349Z,21.15
2022-10-04T23:44:25.565Z,21.15
2022-10-04T23:46:52.599Z,21.15
2022-10-04T23:49:20.985Z,21.14
2022-10-04T23:51:48.278Z,21.16
2022-10-04T23:54:18.662Z,21.13
2022-10-04T23:56:46.246Z,21.12
2022-10-04T23:59:15.774Z,21.13
